LEXJ/SDR METAR and TAF weather

Enter ICAO airport designator
Station Type Date Time Source
LEXJ METAR 2024/04/15 08:30 UTC NOAA

LEXJ 150830Z 33004KT 290V030 7000 -RADZ FEW007 SCT010 OVC016 13/12 Q1027


Station Type Date Time Source
LEXJ Decoded METAR 2024/04/15 08:30 UTC NOAA

Santander / Parayas, Spain (LEXJ) 43-26N 003-49W 9M
Apr 15, 2024 - 04:30 AM EDT / 2024.04.15 0830 UTC
Wind: from the NNW (330 degrees) at 5 MPH (4 KT) (direction variable):0
Visibility: 4 mile(s):0
Sky conditions: overcast
Weather: light rain, drizzle
Temperature: 55 F (13 C)
Dew Point: 53 F (12 C)
Relative Humidity: 93%
Pressure (altimeter): 30.33 in. Hg (1027 hPa)
ob: LEXJ 150830Z 33004KT 290V030 7000 -RADZ FEW007 SCT010 OVC016 13/12 Q1027
cycle: 8

Station Type Date Time Source
LEXJ TAF 2024/04/15 09:27 UTC NOAA